Latest Weather Observations for Mount Gellibrand

IDV60801

Issued at 9:32 am EST Saturday 30 July 2016 (issued every 30 minutes, with the page automatically refreshed every 10 minutes)

About weather observations | Map of weather stations | Latest weather observations for VIC | Other Formats
Station Details ID: 090035 Name: MOUNT GELLIBRAND Lat: -38.23 Lon: 143.79 Height: 261.0 m
Data from the previous 72 hours. | See also: Recent months at Mount Gellibrand
Date/Time
EST
Temp
°C
App
Temp
°C
Dew
Point
°C
Rel
Hum
%
Delta-T
°C
Wind Press
QNH
hPa
Press
MSL
hPa
Rain since
9am
mm
Dir  Spd
km/h
Gust
km/h
Spd
kts
Gust
kts
30/09:30am 9.1 4.4 9.1 100 0.0 N 24 28 13 15 1019.0 1019.5 0.0
30/09:00am 8.6 4.5 8.6 100 0.0 N 20 24 11 13 1019.5 1020.0 2.2
30/08:30am 8.2 2.8 8.2 100 0.0 NNW 26 28 14 15 1019.6 1020.1 2.2
30/08:00am 7.9 3.2 7.9 100 0.0 NNW 22 26 12 14 1019.7 1020.2 2.2
30/07:30am 7.7 2.6 7.7 100 0.0 N 24 26 13 14 1019.9 1020.3 2.2
30/07:00am 7.5 3.1 7.5 100 0.0 NNW 20 24 11 13 1019.7 1020.2 2.2
30/06:30am 6.9 3.0 6.9 100 0.0 N 17 20 9 11 1019.7 1020.2 2.2
30/06:00am 7.1 4.0 7.1 100 0.0 N 13 19 7 10 1020.0 1020.4 2.2
30/05:30am 8.0 4.7 8.0 100 0.0 NNW 15 17 8 9 1020.0 1020.4 2.2
30/05:00am 8.0 4.3 8.0 100 0.0 NW 17 19 9 10 1020.3 1020.7 2.2
30/04:30am 7.7 4.7 7.7 100 0.0 NW 13 15 7 8 1020.4 1020.8 2.2
30/04:00am 8.0 3.9 8.0 100 0.0 WNW 19 20 10 11 1020.5 1020.9 2.2
30/03:30am 6.9 3.7 6.9 100 0.0 NW 13 15 7 8 1020.6 1021.0 2.2
30/03:00am 6.7 3.5 6.7 100 0.0 NW 13 19 7 10 1020.6 1021.0 2.2
30/02:30am 7.4 3.9 7.4 100 0.0 NW 15 19 8 10 1020.7 1021.1 2.2
30/02:00am 7.6 3.8 7.6 100 0.0 NW 17 20 9 11 1020.9 1021.3 2.2
30/01:30am 7.8 4.1 7.8 100 0.0 NW 17 19 9 10 1021.0 1021.4 2.2
30/01:00am 8.1 4.4 8.1 100 0.0 NW 17 20 9 11 1021.0 1021.4 2.2
30/12:30am 8.8 5.3 8.8 100 0.0 WNW 17 20 9 11 1021.3 1021.7 2.2
30/12:00am 9.0 5.9 9.0 100 0.0 WNW 15 17 8 9 1021.4 1021.8 2.2
 
Date/Time
EST
Temp
°C
App
Temp
°C
Dew
Point
°C
Rel
Hum
%
Delta-T
°C
Wind Press
QNH
hPa
Press
MSL
hPa
Rain since
9am
mm
Dir  Spd
km/h
Gust
km/h
Spd
kts
Gust
kts
29/11:30pm 8.9 5.8 8.9 100 0.0 WNW 15 17 8 9 1021.4 1021.8 2.2
29/11:00pm 9.2 6.2 9.2 100 0.0 WNW 15 17 8 9 1021.5 1021.9 2.2
29/10:30pm 9.1 6.1 9.1 100 0.0 W 15 17 8 9 1021.5 1021.9 2.2
29/10:00pm 9.0 6.3 9.0 100 0.0 W 13 17 7 9 1021.3 1021.7 2.2
29/09:30pm 9.5 5.6 9.5 100 0.0 WSW 20 24 11 13 1021.4 1021.8 2.2
29/09:00pm 9.5 5.2 9.4 99 0.1 W 22 24 12 13 1021.2 1021.6 2.2
29/08:30pm 9.9 4.9 9.6 98 0.2 W 26 32 14 17 1021.1 1021.5 2.2
29/08:00pm 9.9 5.7 9.6 98 0.2 WNW 22 26 12 14 1020.9 1021.3 2.2
29/07:30pm 9.7 5.4 9.2 97 0.3 W 22 24 12 13 1020.8 1021.2 2.2
29/07:00pm 9.9 6.2 9.3 96 0.3 W 19 24 10 13 1020.5 1020.9 2.2
29/06:30pm 9.6 4.4 8.8 95 0.4 W 26 28 14 15 1019.9 1020.3 2.2
29/06:00pm 10.2 5.5 9.3 94 0.5 WNW 24 28 13 15 1019.6 1020.1 2.2
29/05:30pm 10.3 6.5 9.2 93 0.6 W 19 24 10 13 1019.4 1019.9 2.2
29/05:00pm 10.3 4.8 9.2 93 0.6 WSW 28 32 15 17 1019.2 1019.7 2.2
29/04:30pm 10.6 5.4 9.0 90 0.8 WSW 26 35 14 19 1019.0 1019.5 2.2
29/04:00pm 10.7 4.4 9.6 93 0.6 WSW 33 39 18 21 1018.9 1019.4 2.2
29/03:30pm 11.0 2.4 8.8 86 1.1 WSW 44 52 24 28 1018.6 1019.1 2.2
29/03:00pm 12.3 4.8 9.5 83 1.4 W 39 46 21 25 1018.4 1018.8 2.2
29/02:30pm 12.5 6.6 10.4 87 1.1 WSW 32 44 17 24 1018.2 1018.6 2.2
29/02:00pm 10.8 4.3 10.5 98 0.2 WSW 35 46 19 25 1018.3 1018.7 2.2
29/01:30pm 10.6 3.5 9.5 93 0.6 W 37 57 20 31 1018.3 1018.7 1.8
29/01:29pm 11.0 4.0 9.9 93 0.6 W 37 57 20 31 1018.4 1018.8 1.6
29/01:00pm 11.4 3.6 9.8 90 0.8 W 41 54 22 29 1018.6 1019.1 1.2
29/12:30pm 12.4 4.6 11.0 91 0.7 WNW 43 50 23 27 1018.7 1019.2 1.2
29/12:00pm 11.6 4.3 11.6 100 0.0 WNW 41 50 22 27 1019.1 1019.6 1.2
29/11:30am 11.5 4.2 11.5 100 0.0 WNW 41 56 22 30 1019.4 1019.9 1.2
29/11:00am 10.3 3.0 10.3 100 0.0 WNW 39 48 21 26 1019.5 1020.0 1.2
29/10:30am 9.9 2.5 9.9 100 0.0 NW 39 48 21 26 1019.3 1019.8 1.2
29/10:00am 9.6 1.8 9.6 100 0.0 WNW 41 52 22 28 1019.2 1019.7 1.2
29/09:30am 9.3 1.8 9.3 100 0.0 WNW 39 48 21 26 1019.6 1020.1 0.6
29/09:00am 9.2 0.7 9.2 100 0.0 NW 44 54 24 29 1019.1 1019.6 0.0
29/08:30am 9.0 0.4 9.0 100 0.0 NW 44 52 24 28 1018.8 1019.3 0.0
29/08:00am 8.9 -0.1 8.9 100 0.0 NW 46 57 25 31 1018.6 1019.1 0.0
29/07:30am 8.6 0.5 8.6 100 0.0 NW 41 48 22 26 1018.5 1018.9 0.0
29/07:00am 8.8 0.1 8.5 98 0.1 NW 44 54 24 29 1018.2 1018.6 0.0
29/06:30am 8.9 -0.2 8.5 97 0.2 NW 46 52 25 28 1018.1 1018.5 0.0
29/06:00am 8.9 0.2 8.5 97 0.2 NW 44 54 24 29 1018.1 1018.5 0.0
29/05:30am 8.8 0.7 8.5 98 0.1 NW 41 48 22 26 1018.2 1018.6 0.0
29/05:00am 8.7 0.5 8.3 97 0.2 NW 41 48 22 26 1018.2 1018.6 0.0
29/04:30am 8.9 0.7 8.1 95 0.4 NW 41 46 22 25 1018.3 1018.7 0.0
29/04:00am 8.6 0.8 8.2 97 0.2 NW 39 46 21 25 1018.5 1018.9 0.0
29/03:30am 8.7 0.9 8.1 96 0.3 NW 39 46 21 25 1018.7 1019.2 0.0
29/03:00am 8.6 0.7 7.8 95 0.4 NW 39 44 21 24 1018.9 1019.4 0.0
29/02:30am 8.8 0.5 7.7 93 0.5 NW 41 48 22 26 1019.1 1019.6 0.0
29/02:00am 8.8 0.5 7.6 92 0.6 NW 41 48 22 26 1019.0 1019.5 0.0
29/01:30am 9.0 0.3 7.6 91 0.7 NW 43 50 23 27 1019.0 1019.5 0.0
29/01:00am 8.9 0.1 7.4 90 0.7 NW 43 48 23 26 1019.4 1019.9 0.0
29/12:30am 8.8 0.8 7.3 90 0.7 NW 39 46 21 25 1019.5 1020.0 0.0
29/12:00am 9.0 0.9 7.0 87 0.9 NW 39 46 21 25 1019.7 1020.2 0.0
 
Date/Time
EST
Temp
°C
App
Temp
°C
Dew
Point
°C
Rel
Hum
%
Delta-T
°C
Wind Press
QNH
hPa
Press
MSL
hPa
Rain since
9am
mm
Dir  Spd
km/h
Gust
km/h
Spd
kts
Gust
kts
28/11:30pm 9.1 0.6 7.1 87 1.0 NW 41 46 22 25 1019.9 1020.3 0.0
28/11:00pm 9.3 0.8 7.1 86 1.0 NW 41 48 22 26 1020.0 1020.4 0.0
28/10:30pm 9.3 0.8 7.1 86 1.1 NW 41 50 22 27 1020.1 1020.5 0.0
28/10:00pm 10.0 2.4 7.6 85 1.2 NW 37 46 20 25 1020.6 1021.0 0.0
28/09:30pm 10.1 2.2 7.7 85 1.2 NW 39 48 21 26 1020.7 1021.1 0.0
28/09:00pm 10.1 2.2 8.0 87 1.0 NW 39 44 21 24 1021.1 1021.5 0.0
28/08:30pm 10.0 4.0 8.6 91 0.7 NW 30 35 16 19 1021.2 1021.6 0.0
28/08:00pm 10.5 2.7 8.3 86 1.1 WNW 39 46 21 25 1021.2 1021.6 0.0
28/07:30pm 10.6 4.4 9.4 92 0.6 NW 32 41 17 22 1021.3 1021.7 0.0
28/07:00pm 10.6 4.9 9.7 94 0.5 WNW 30 35 16 19 1021.5 1021.9 0.0
28/06:30pm 10.7 5.4 9.8 94 0.5 WNW 28 33 15 18 1021.5 1021.9 0.0
28/06:00pm 11.1 4.0 9.4 89 0.9 WNW 37 44 20 24 1021.1 1021.5 0.0
28/05:30pm 11.4 2.9 9.3 87 1.1 WNW 44 54 24 29 1020.7 1021.1 0.0
28/05:00pm 11.5 4.2 8.9 84 1.3 WNW 37 46 20 25 1020.9 1021.3 0.0
28/04:30pm 11.8 4.9 9.0 83 1.4 WNW 35 43 19 23 1020.9 1021.3 0.0
28/04:00pm 11.8 4.1 8.6 81 1.6 WNW 39 46 21 25 1020.9 1021.3 0.0
28/03:30pm 11.8 3.7 8.8 82 1.5 WNW 41 50 22 27 1021.0 1021.4 0.0
28/03:00pm 12.2 4.6 9.2 82 1.5 WNW 39 46 21 25 1020.8 1021.2 0.0
28/02:30pm 11.5 3.8 8.7 83 1.4 WNW 39 48 21 26 1021.0 1021.4 0.0
28/02:00pm 11.1 2.4 8.5 84 1.3 WNW 44 54 24 29 1021.1 1021.5 0.0
28/01:51pm 11.0 2.3 8.6 85 1.2 WNW 44 63 24 34 1021.0 1021.4 0.0
28/01:30pm 10.8 2.2 8.7 87 1.0 WNW 44 57 24 31 1021.2 1021.6 0.0
28/01:00pm 10.5 1.2 9.1 91 0.7 WNW 48 57 26 31 1021.4 1021.8 0.0
28/12:30pm 10.4 1.9 9.3 93 0.6 WNW 44 57 24 31 1021.5 1021.9 0.0
28/12:00pm 10.3 1.4 9.1 92 0.6 WNW 46 56 25 30 1021.8 1022.3 0.0
28/11:30am 10.2 1.9 9.3 94 0.5 WNW 43 56 23 30 1022.3 1022.8 0.0
28/11:00am 9.8 0.0 8.6 92 0.6 WNW 50 61 27 33 1022.3 1022.8 0.0
28/10:30am 9.6 1.1 8.7 94 0.4 WNW 43 52 23 28 1022.2 1022.7 0.0
28/10:00am 9.2 -0.3 8.4 95 0.4 WNW 48 61 26 33 1021.7 1022.1 0.0
28/09:30am 9.1 0.6 9.1 100 0.0 WNW 44 54 24 29 1021.6 1022.0 0.0
28/09:00am 8.3 -0.4 8.3 100 0.0 WNW 44 56 24 30 1021.5 1021.9 0.4
28/08:30am 8.0 -0.6 8.0 100 0.0 WNW 43 52 23 28 1021.3 1021.7 0.4
28/08:00am 7.8 -1.4 7.8 100 0.0 WNW 46 56 25 30 1021.2 1021.6 0.4
28/07:30am 7.4 -1.6 7.4 100 0.0 WNW 44 54 24 29 1020.8 1021.2 0.4
28/07:00am 7.3 -1.7 7.3 100 0.0 WNW 44 52 24 28 1020.7 1021.1 0.4
28/06:30am 7.4 -1.9 7.4 100 0.0 WNW 46 54 25 29 1020.5 1020.9 0.4
28/06:00am 7.4 -1.6 7.4 100 0.0 WNW 44 52 24 28 1020.5 1020.9 0.4
28/05:30am 7.3 -1.7 7.3 100 0.0 WNW 44 54 24 29 1020.1 1020.5 0.4
28/05:00am 7.3 -2.1 7.3 100 0.0 WNW 46 54 25 29 1020.1 1020.5 0.4
28/04:30am 7.3 -1.7 7.3 100 0.0 WNW 44 54 24 29 1020.0 1020.4 0.4
28/04:00am 7.3 -2.1 7.3 100 0.0 WNW 46 56 25 30 1020.0 1020.4 0.4
28/03:30am 7.4 -2.3 7.4 100 0.0 WNW 48 56 26 30 1020.0 1020.4 0.4
28/03:00am 7.3 -1.5 7.3 100 0.0 WNW 43 48 23 26 1020.4 1020.8 0.4
28/02:30am 7.1 -1.4 7.1 100 0.0 WNW 41 46 22 25 1020.3 1020.7 0.4
28/02:00am 7.4 -0.6 7.4 100 0.0 WNW 39 50 21 27 1020.4 1020.8 0.4
28/01:30am 7.1 -1.0 7.1 100 0.0 WNW 39 44 21 24 1020.5 1020.9 0.4
28/01:00am 7.2 -0.9 7.2 100 0.0 WNW 39 50 21 27 1020.4 1020.8 0.4
28/12:30am 7.2 -1.2 7.2 100 0.0 WNW 41 50 22 27 1020.3 1020.7 0.4
28/12:00am 7.1 -1.4 7.1 100 0.0 WNW 41 50 22 27 1020.5 1020.9 0.4
 
Date/Time
EST
Temp
°C
App
Temp
°C
Dew
Point
°C
Rel
Hum
%
Delta-T
°C
Wind Press
QNH
hPa
Press
MSL
hPa
Rain since
9am
mm
Dir  Spd
km/h
Gust
km/h
Spd
kts
Gust
kts
27/11:30pm 7.1 -1.0 7.1 100 0.0 WNW 39 48 21 26 1020.5 1020.9 0.4
27/11:00pm 7.0 -1.5 7.0 100 0.0 WNW 41 50 22 27 1020.4 1020.8 0.4
27/10:30pm 7.0 -1.5 7.0 100 0.0 WNW 41 48 22 26 1020.3 1020.7 0.4
27/10:00pm 6.8 -1.7 6.8 100 0.0 WNW 41 48 22 26 1020.0 1020.4 0.4
27/09:30pm 6.7 -1.9 6.7 100 0.0 WNW 41 48 22 26 1020.2 1020.6 0.4
27/09:00pm 6.7 -1.5 6.7 100 0.0 WNW 39 46 21 25 1020.3 1020.7 0.4
27/08:30pm 6.5 -1.7 6.5 100 0.0 WNW 39 48 21 26 1020.4 1020.8 0.4
27/08:00pm 6.7 -1.9 6.6 99 0.0 WNW 41 50 22 27 1020.2 1020.6 0.4
27/07:30pm 7.0 -0.8 6.7 98 0.1 WNW 37 46 20 25 1020.2 1020.6 0.4
27/07:00pm 6.8 -0.7 6.5 98 0.1 WNW 35 46 19 25 1019.5 1020.0 0.2
27/06:30pm 7.0 -1.2 6.6 97 0.2 WNW 39 48 21 26 1019.2 1019.7 0.2
27/06:00pm 6.8 -1.5 6.2 96 0.3 WNW 39 46 21 25 1018.4 1018.8 0.2
27/05:30pm 7.6 -0.8 5.7 88 0.9 W 39 48 21 26 1017.9 1018.3 0.2
27/05:00pm 7.4 -0.5 6.0 91 0.6 WNW 37 46 20 25 1017.6 1018.0 0.2
27/04:30pm 7.3 -1.8 5.9 91 0.6 W 43 54 23 29 1017.7 1018.1 0.2
27/04:00pm 7.5 -0.1 6.0 90 0.7 W 35 46 19 25 1017.4 1017.8 0.2
27/03:30pm 7.3 -0.6 6.4 94 0.4 W 37 50 20 27 1017.1 1017.5 0.0
27/03:02pm 7.7 -0.7 5.8 88 0.9 W 39 57 21 31 1016.8 1017.2 0.0
27/03:00pm 8.0 -0.4 5.6 85 1.1 W 39 54 21 29 1016.8 1017.2 0.0
27/02:30pm 7.9 0.2 5.5 85 1.1 WSW 35 46 19 25 1016.4 1016.8 0.0
27/02:27pm 7.9 -0.9 5.7 86 1.0 WSW 41 61 22 33 1016.3 1016.7 0.0
27/02:00pm 8.2 -1.7 5.0 80 1.4 WSW 46 57 25 31 1016.0 1016.4 0.0
27/01:51pm 8.2 0.6 6.0 86 1.0 WSW 35 57 19 31 1015.7 1016.2 0.0
27/01:30pm 9.1 2.0 5.3 77 1.7 W 32 43 17 23 1015.5 1016.0 0.0
27/01:00pm 8.0 -1.7 3.8 75 1.8 WSW 44 57 24 31 1015.5 1016.0 0.0
27/12:30pm 8.1 -1.5 3.2 71 2.1 WSW 43 54 23 29 1015.5 1016.0 0.0
27/12:00pm 8.2 -1.1 2.7 68 2.3 WSW 41 50 22 27 1015.4 1015.9 0.0
27/11:38am 8.6 1.7 4.4 75 1.9 WSW 30 48 16 26 1015.1 1015.5 0.0
27/11:30am 8.6 1.2 5.0 78 1.6 WSW 33 43 18 23 1015.2 1015.6 0.0
27/11:00am 7.5 1.8 5.0 84 1.1 WSW 24 35 13 19 1014.8 1015.2 0.0
27/10:30am 7.7 1.0 5.5 86 1.0 SW 30 39 16 21 1014.7 1015.1 0.0
27/10:00am 7.5 0.1 4.8 83 1.2 WSW 33 43 18 23 1014.2 1014.6 0.0

Other Formats:

Comma delimited format used in spreadsheet applications
http://www.bom.gov.au/fwo/IDV60801/IDV60801.95845.axf

JavaScript Object Notation format (JSON) in row-major order
http://www.bom.gov.au/fwo/IDV60801/IDV60801.95845.json